sensor_id;sensor_type;location;lat;lon;timestamp;P1;durP1;ratioP1;P2;durP2;ratioP2
52494;SDS011;38405;53.212;5.660;2023-04-23T00:01:16;43.35;;;21.13;;
52494;SDS011;38405;53.212;5.660;2023-04-23T00:03:43;43.00;;;21.40;;
52494;SDS011;38405;53.212;5.660;2023-04-23T00:06:09;48.47;;;21.65;;
52494;SDS011;38405;53.212;5.660;2023-04-23T00:08:39;50.45;;;23.63;;
52494;SDS011;38405;53.212;5.660;2023-04-23T00:11:06;49.28;;;23.27;;
52494;SDS011;38405;53.212;5.660;2023-04-23T00:13:32;51.97;;;24.05;;
52494;SDS011;38405;53.212;5.660;2023-04-23T00:15:58;53.70;;;24.05;;
52494;SDS011;38405;53.212;5.660;2023-04-23T00:18:24;59.15;;;24.90;;
52494;SDS011;38405;53.212;5.660;2023-04-23T00:20:50;58.42;;;25.13;;
52494;SDS011;38405;53.212;5.660;2023-04-23T00:23:16;52.30;;;24.83;;
52494;SDS011;38405;53.212;5.660;2023-04-23T00:25:41;60.63;;;24.48;;
52494;SDS011;38405;53.212;5.660;2023-04-23T00:28:07;55.45;;;25.17;;
52494;SDS011;38405;53.212;5.660;2023-04-23T00:30:33;52.92;;;25.52;;
52494;SDS011;38405;53.212;5.660;2023-04-23T00:32:58;50.72;;;23.98;;
52494;SDS011;38405;53.212;5.660;2023-04-23T00:35:24;51.15;;;25.02;;
52494;SDS011;38405;53.212;5.660;2023-04-23T00:37:50;53.58;;;25.75;;
52494;SDS011;38405;53.212;5.660;2023-04-23T00:40:16;62.30;;;26.08;;
52494;SDS011;38405;53.212;5.660;2023-04-23T00:42:41;59.78;;;26.80;;
52494;SDS011;38405;53.212;5.660;2023-04-23T00:45:09;49.72;;;25.15;;
52494;SDS011;38405;53.212;5.660;2023-04-23T00:47:36;52.50;;;26.05;;
52494;SDS011;38405;53.212;5.660;2023-04-23T00:50:02;49.50;;;24.02;;
52494;SDS011;38405;53.212;5.660;2023-04-23T00:52:28;55.30;;;24.73;;
52494;SDS011;38405;53.212;5.660;2023-04-23T00:54:54;51.10;;;23.52;;
52494;SDS011;38405;53.212;5.660;2023-04-23T00:57:20;48.72;;;24.52;;
52494;SDS011;38405;53.212;5.660;2023-04-23T00:59:47;58.47;;;25.65;;
52494;SDS011;38405;53.212;5.660;2023-04-23T01:02:13;58.67;;;26.63;;
52494;SDS011;38405;53.212;5.660;2023-04-23T01:04:39;64.28;;;26.35;;
52494;SDS011;38405;53.212;5.660;2023-04-23T01:07:07;64.05;;;24.80;;
52494;SDS011;38405;53.212;5.660;2023-04-23T01:09:35;65.57;;;26.55;;
52494;SDS011;38405;53.212;5.660;2023-04-23T01:12:01;65.15;;;25.33;;
52494;SDS011;38405;53.212;5.660;2023-04-23T01:14:30;67.30;;;25.73;;
52494;SDS011;38405;53.212;5.660;2023-04-23T01:16:55;101.53;;;28.27;;
52494;SDS011;38405;53.212;5.660;2023-04-23T01:19:22;121.40;;;30.25;;
52494;SDS011;38405;53.212;5.660;2023-04-23T01:21:47;199.85;;;29.45;;
52494;SDS011;38405;53.212;5.660;2023-04-23T01:24:15;326.85;;;32.42;;
52494;SDS011;38405;53.212;5.660;2023-04-23T01:26:40;498.23;;;33.88;;
52494;SDS011;38405;53.212;5.660;2023-04-23T01:29:06;747.35;;;39.08;;
52494;SDS011;38405;53.212;5.660;2023-04-23T01:31:34;577.35;;;33.03;;
52494;SDS011;38405;53.212;5.660;2023-04-23T01:34:00;782.22;;;39.30;;
52494;SDS011;38405;53.212;5.660;2023-04-23T01:36:26;616.53;;;35.05;;
52494;SDS011;38405;53.212;5.660;2023-04-23T01:38:52;600.65;;;34.88;;
52494;SDS011;38405;53.212;5.660;2023-04-23T01:41:18;650.92;;;34.10;;
52494;SDS011;38405;53.212;5.660;2023-04-23T01:43:44;614.92;;;34.72;;
52494;SDS011;38405;53.212;5.660;2023-04-23T01:46:10;691.70;;;37.38;;
52494;SDS011;38405;53.212;5.660;2023-04-23T01:48:36;798.40;;;40.90;;
52494;SDS011;38405;53.212;5.660;2023-04-23T01:51:02;716.55;;;35.35;;
52494;SDS011;38405;53.212;5.660;2023-04-23T01:53:28;745.72;;;36.55;;
52494;SDS011;38405;53.212;5.660;2023-04-23T01:55:54;671.58;;;34.80;;
52494;SDS011;38405;53.212;5.660;2023-04-23T01:58:20;600.70;;;32.50;;
52494;SDS011;38405;53.212;5.660;2023-04-23T02:00:48;676.85;;;37.55;;
52494;SDS011;38405;53.212;5.660;2023-04-23T02:03:14;878.08;;;38.65;;
52494;SDS011;38405;53.212;5.660;2023-04-23T02:05:40;794.58;;;34.95;;
52494;SDS011;38405;53.212;5.660;2023-04-23T02:08:06;828.40;;;36.42;;
52494;SDS011;38405;53.212;5.660;2023-04-23T02:10:32;844.75;;;31.88;;
52494;SDS011;38405;53.212;5.660;2023-04-23T02:12:58;850.58;;;31.90;;
52494;SDS011;38405;53.212;5.660;2023-04-23T02:15:25;718.10;;;28.65;;
52494;SDS011;38405;53.212;5.660;2023-04-23T02:17:51;752.47;;;28.63;;
52494;SDS011;38405;53.212;5.660;2023-04-23T02:20:16;800.42;;;29.42;;
52494;SDS011;38405;53.212;5.660;2023-04-23T02:22:43;722.10;;;26.33;;
52494;SDS011;38405;53.212;5.660;2023-04-23T02:25:10;653.83;;;27.38;;
52494;SDS011;38405;53.212;5.660;2023-04-23T02:27:39;687.35;;;32.40;;
52494;SDS011;38405;53.212;5.660;2023-04-23T02:30:05;722.55;;;32.20;;
52494;SDS011;38405;53.212;5.660;2023-04-23T02:32:33;732.15;;;35.55;;
52494;SDS011;38405;53.212;5.660;2023-04-23T02:34:59;691.75;;;37.13;;
52494;SDS011;38405;53.212;5.660;2023-04-23T02:37:26;814.47;;;38.83;;
52494;SDS011;38405;53.212;5.660;2023-04-23T02:39:52;764.17;;;37.53;;
52494;SDS011;38405;53.212;5.660;2023-04-23T02:42:17;709.30;;;38.72;;
52494;SDS011;38405;53.212;5.660;2023-04-23T02:44:43;747.95;;;41.20;;
52494;SDS011;38405;53.212;5.660;2023-04-23T02:47:09;799.75;;;44.92;;
52494;SDS011;38405;53.212;5.660;2023-04-23T02:49:34;796.25;;;46.13;;
52494;SDS011;38405;53.212;5.660;2023-04-23T02:52:00;676.33;;;44.20;;
52494;SDS011;38405;53.212;5.660;2023-04-23T02:54:26;795.25;;;51.58;;
52494;SDS011;38405;53.212;5.660;2023-04-23T02:56:51;700.78;;;46.50;;
52494;SDS011;38405;53.212;5.660;2023-04-23T02:59:17;824.58;;;54.67;;
52494;SDS011;38405;53.212;5.660;2023-04-23T03:01:43;756.92;;;51.40;;
52494;SDS011;38405;53.212;5.660;2023-04-23T03:04:08;782.28;;;51.95;;
52494;SDS011;38405;53.212;5.660;2023-04-23T03:06:34;751.17;;;54.17;;
52494;SDS011;38405;53.212;5.660;2023-04-23T03:09:00;673.78;;;53.55;;
52494;SDS011;38405;53.212;5.660;2023-04-23T03:11:26;778.83;;;57.42;;
52494;SDS011;38405;53.212;5.660;2023-04-23T03:13:53;814.65;;;63.22;;
52494;SDS011;38405;53.212;5.660;2023-04-23T03:16:19;647.88;;;51.35;;
52494;SDS011;38405;53.212;5.660;2023-04-23T03:18:44;822.88;;;60.00;;
52494;SDS011;38405;53.212;5.660;2023-04-23T03:21:10;780.53;;;57.38;;
52494;SDS011;38405;53.212;5.660;2023-04-23T03:23:36;675.42;;;54.67;;
52494;SDS011;38405;53.212;5.660;2023-04-23T03:26:01;811.15;;;61.92;;
52494;SDS011;38405;53.212;5.660;2023-04-23T03:28:28;955.05;;;72.28;;
52494;SDS011;38405;53.212;5.660;2023-04-23T03:30:54;849.00;;;66.68;;
52494;SDS011;38405;53.212;5.660;2023-04-23T03:33:20;855.83;;;68.65;;
52494;SDS011;38405;53.212;5.660;2023-04-23T03:35:46;895.10;;;70.15;;
52494;SDS011;38405;53.212;5.660;2023-04-23T03:38:11;889.47;;;69.15;;
52494;SDS011;38405;53.212;5.660;2023-04-23T03:40:37;870.95;;;70.60;;
52494;SDS011;38405;53.212;5.660;2023-04-23T03:43:03;914.25;;;72.35;;
52494;SDS011;38405;53.212;5.660;2023-04-23T03:45:28;806.75;;;67.25;;
52494;SDS011;38405;53.212;5.660;2023-04-23T03:47:55;771.28;;;65.65;;
52494;SDS011;38405;53.212;5.660;2023-04-23T03:50:20;749.13;;;69.15;;
52494;SDS011;38405;53.212;5.660;2023-04-23T03:52:46;694.03;;;66.60;;
52494;SDS011;38405;53.212;5.660;2023-04-23T03:55:11;656.97;;;71.07;;
52494;SDS011;38405;53.212;5.660;2023-04-23T03:57:37;581.47;;;59.80;;
52494;SDS011;38405;53.212;5.660;2023-04-23T04:00:03;530.13;;;62.08;;
52494;SDS011;38405;53.212;5.660;2023-04-23T04:02:36;562.88;;;66.78;;
52494;SDS011;38405;53.212;5.660;2023-04-23T04:05:02;404.08;;;60.78;;
52494;SDS011;38405;53.212;5.660;2023-04-23T04:07:29;389.38;;;58.63;;
52494;SDS011;38405;53.212;5.660;2023-04-23T04:09:55;288.33;;;53.92;;
52494;SDS011;38405;53.212;5.660;2023-04-23T04:12:20;313.73;;;55.83;;
52494;SDS011;38405;53.212;5.660;2023-04-23T04:14:46;335.35;;;61.30;;
52494;SDS011;38405;53.212;5.660;2023-04-23T04:17:12;326.23;;;60.15;;
52494;SDS011;38405;53.212;5.660;2023-04-23T04:19:40;228.27;;;52.28;;
52494;SDS011;38405;53.212;5.660;2023-04-23T04:22:06;296.17;;;60.88;;
52494;SDS011;38405;53.212;5.660;2023-04-23T04:24:33;297.23;;;60.20;;
52494;SDS011;38405;53.212;5.660;2023-04-23T04:27:00;282.00;;;60.20;;
52494;SDS011;38405;53.212;5.660;2023-04-23T04:29:26;338.33;;;63.70;;
52494;SDS011;38405;53.212;5.660;2023-04-23T04:31:52;276.20;;;61.33;;
52494;SDS011;38405;53.212;5.660;2023-04-23T04:34:19;310.35;;;65.55;;
52494;SDS011;38405;53.212;5.660;2023-04-23T04:36:45;304.42;;;64.70;;
52494;SDS011;38405;53.212;5.660;2023-04-23T04:39:11;249.02;;;61.13;;
52494;SDS011;38405;53.212;5.660;2023-04-23T04:41:38;255.13;;;58.85;;
52494;SDS011;38405;53.212;5.660;2023-04-23T04:44:05;222.60;;;57.65;;
52494;SDS011;38405;53.212;5.660;2023-04-23T04:46:32;281.90;;;68.40;;
52494;SDS011;38405;53.212;5.660;2023-04-23T04:48:59;203.65;;;59.33;;
52494;SDS011;38405;53.212;5.660;2023-04-23T04:51:24;214.90;;;59.20;;
52494;SDS011;38405;53.212;5.660;2023-04-23T04:53:51;206.60;;;58.10;;
52494;SDS011;38405;53.212;5.660;2023-04-23T04:56:17;211.88;;;61.22;;
52494;SDS011;38405;53.212;5.660;2023-04-23T04:58:42;180.70;;;55.60;;
52494;SDS011;38405;53.212;5.660;2023-04-23T05:01:08;215.68;;;59.72;;
52494;SDS011;38405;53.212;5.660;2023-04-23T05:03:34;205.52;;;59.15;;
52494;SDS011;38405;53.212;5.660;2023-04-23T05:06:01;191.55;;;58.72;;
52494;SDS011;38405;53.212;5.660;2023-04-23T05:08:26;212.90;;;60.83;;
52494;SDS011;38405;53.212;5.660;2023-04-23T05:10:52;173.95;;;56.90;;
52494;SDS011;38405;53.212;5.660;2023-04-23T05:13:18;182.27;;;56.40;;
52494;SDS011;38405;53.212;5.660;2023-04-23T05:15:47;159.00;;;56.00;;
52494;SDS011;38405;53.212;5.660;2023-04-23T05:18:12;153.05;;;52.75;;
52494;SDS011;38405;53.212;5.660;2023-04-23T05:20:38;162.38;;;53.58;;
52494;SDS011;38405;53.212;5.660;2023-04-23T05:23:04;161.70;;;53.10;;
52494;SDS011;38405;53.212;5.660;2023-04-23T05:25:30;169.10;;;52.22;;
52494;SDS011;38405;53.212;5.660;2023-04-23T05:27:56;147.07;;;51.38;;
52494;SDS011;38405;53.212;5.660;2023-04-23T05:30:22;141.50;;;50.58;;
52494;SDS011;38405;53.212;5.660;2023-04-23T05:32:48;145.48;;;54.13;;
52494;SDS011;38405;53.212;5.660;2023-04-23T05:35:14;123.70;;;48.03;;
52494;SDS011;38405;53.212;5.660;2023-04-23T05:37:40;145.02;;;50.45;;
52494;SDS011;38405;53.212;5.660;2023-04-23T05:40:06;118.32;;;49.53;;
52494;SDS011;38405;53.212;5.660;2023-04-23T05:42:33;131.30;;;50.47;;
52494;SDS011;38405;53.212;5.660;2023-04-23T05:45:00;125.00;;;48.17;;
52494;SDS011;38405;53.212;5.660;2023-04-23T05:47:26;115.32;;;45.75;;
52494;SDS011;38405;53.212;5.660;2023-04-23T05:49:52;116.38;;;46.78;;
52494;SDS011;38405;53.212;5.660;2023-04-23T05:52:18;107.88;;;45.85;;
52494;SDS011;38405;53.212;5.660;2023-04-23T05:54:43;105.35;;;45.65;;
52494;SDS011;38405;53.212;5.660;2023-04-23T05:57:09;115.18;;;47.90;;
52494;SDS011;38405;53.212;5.660;2023-04-23T05:59:36;106.10;;;47.47;;
52494;SDS011;38405;53.212;5.660;2023-04-23T06:02:01;100.60;;;44.83;;
52494;SDS011;38405;53.212;5.660;2023-04-23T06:04:27;89.15;;;42.65;;
52494;SDS011;38405;53.212;5.660;2023-04-23T06:06:52;86.28;;;42.42;;
52494;SDS011;38405;53.212;5.660;2023-04-23T06:09:18;83.95;;;42.28;;
52494;SDS011;38405;53.212;5.660;2023-04-23T06:11:44;95.28;;;44.00;;
52494;SDS011;38405;53.212;5.660;2023-04-23T06:14:10;86.70;;;42.30;;
52494;SDS011;38405;53.212;5.660;2023-04-23T06:16:35;82.90;;;39.88;;
52494;SDS011;38405;53.212;5.660;2023-04-23T06:19:02;74.03;;;39.78;;
52494;SDS011;38405;53.212;5.660;2023-04-23T06:21:27;75.00;;;39.22;;
52494;SDS011;38405;53.212;5.660;2023-04-23T06:23:53;77.05;;;40.70;;
52494;SDS011;38405;53.212;5.660;2023-04-23T06:26:19;76.80;;;40.22;;
52494;SDS011;38405;53.212;5.660;2023-04-23T06:28:45;64.25;;;37.50;;
52494;SDS011;38405;53.212;5.660;2023-04-23T06:31:11;63.72;;;37.00;;
52494;SDS011;38405;53.212;5.660;2023-04-23T06:33:37;71.47;;;40.30;;
52494;SDS011;38405;53.212;5.660;2023-04-23T06:36:03;68.15;;;40.20;;
52494;SDS011;38405;53.212;5.660;2023-04-23T06:38:29;67.65;;;38.92;;
52494;SDS011;38405;53.212;5.660;2023-04-23T06:40:55;67.55;;;37.33;;
52494;SDS011;38405;53.212;5.660;2023-04-23T06:43:21;62.08;;;36.13;;
52494;SDS011;38405;53.212;5.660;2023-04-23T06:45:47;57.80;;;35.72;;
52494;SDS011;38405;53.212;5.660;2023-04-23T06:48:13;59.72;;;36.20;;
52494;SDS011;38405;53.212;5.660;2023-04-23T06:50:40;70.95;;;37.20;;
52494;SDS011;38405;53.212;5.660;2023-04-23T06:53:06;58.00;;;35.70;;
52494;SDS011;38405;53.212;5.660;2023-04-23T06:55:31;57.05;;;34.95;;
52494;SDS011;38405;53.212;5.660;2023-04-23T06:57:57;59.42;;;36.10;;
52494;SDS011;38405;53.212;5.660;2023-04-23T07:00:23;59.63;;;36.95;;
52494;SDS011;38405;53.212;5.660;2023-04-23T07:02:48;55.22;;;34.55;;
52494;SDS011;38405;53.212;5.660;2023-04-23T07:05:15;57.42;;;35.35;;
52494;SDS011;38405;53.212;5.660;2023-04-23T07:07:41;54.47;;;34.20;;
52494;SDS011;38405;53.212;5.660;2023-04-23T07:10:08;53.75;;;33.78;;
52494;SDS011;38405;53.212;5.660;2023-04-23T07:12:35;53.55;;;34.58;;
52494;SDS011;38405;53.212;5.660;2023-04-23T07:15:01;51.03;;;34.60;;
52494;SDS011;38405;53.212;5.660;2023-04-23T07:17:27;48.72;;;34.38;;
52494;SDS011;38405;53.212;5.660;2023-04-23T07:19:53;46.42;;;32.72;;
52494;SDS011;38405;53.212;5.660;2023-04-23T07:22:18;45.72;;;32.10;;
52494;SDS011;38405;53.212;5.660;2023-04-23T07:24:44;42.75;;;30.55;;
52494;SDS011;38405;53.212;5.660;2023-04-23T07:27:10;45.63;;;32.05;;
52494;SDS011;38405;53.212;5.660;2023-04-23T07:29:35;40.17;;;29.35;;
52494;SDS011;38405;53.212;5.660;2023-04-23T07:32:01;43.58;;;29.13;;
52494;SDS011;38405;53.212;5.660;2023-04-23T07:34:27;39.17;;;28.33;;
52494;SDS011;38405;53.212;5.660;2023-04-23T07:36:53;40.28;;;29.33;;
52494;SDS011;38405;53.212;5.660;2023-04-23T07:39:20;36.88;;;26.60;;
52494;SDS011;38405;53.212;5.660;2023-04-23T07:41:46;36.45;;;26.95;;
52494;SDS011;38405;53.212;5.660;2023-04-23T07:44:11;37.08;;;26.88;;
52494;SDS011;38405;53.212;5.660;2023-04-23T07:46:37;37.65;;;27.30;;
52494;SDS011;38405;53.212;5.660;2023-04-23T07:49:02;34.13;;;26.30;;
52494;SDS011;38405;53.212;5.660;2023-04-23T07:51:28;33.50;;;25.55;;
52494;SDS011;38405;53.212;5.660;2023-04-23T07:53:54;32.35;;;25.88;;
52494;SDS011;38405;53.212;5.660;2023-04-23T07:56:21;33.60;;;25.63;;
52494;SDS011;38405;53.212;5.660;2023-04-23T07:58:48;30.98;;;23.52;;
52494;SDS011;38405;53.212;5.660;2023-04-23T08:01:14;32.92;;;24.77;;
52494;SDS011;38405;53.212;5.660;2023-04-23T08:03:40;30.92;;;24.40;;
52494;SDS011;38405;53.212;5.660;2023-04-23T08:06:06;28.60;;;22.27;;
52494;SDS011;38405;53.212;5.660;2023-04-23T08:08:32;29.58;;;23.05;;
52494;SDS011;38405;53.212;5.660;2023-04-23T08:10:58;26.30;;;21.80;;
52494;SDS011;38405;53.212;5.660;2023-04-23T08:13:23;26.90;;;20.27;;
52494;SDS011;38405;53.212;5.660;2023-04-23T08:15:49;29.75;;;22.02;;
52494;SDS011;38405;53.212;5.660;2023-04-23T08:18:16;27.45;;;19.67;;
52494;SDS011;38405;53.212;5.660;2023-04-23T08:20:41;27.65;;;19.58;;
52494;SDS011;38405;53.212;5.660;2023-04-23T08:23:07;24.40;;;18.52;;
52494;SDS011;38405;53.212;5.660;2023-04-23T08:25:33;20.13;;;17.08;;
52494;SDS011;38405;53.212;5.660;2023-04-23T08:27:59;19.63;;;15.63;;
52494;SDS011;38405;53.212;5.660;2023-04-23T08:30:24;23.45;;;16.30;;
52494;SDS011;38405;53.212;5.660;2023-04-23T08:32:50;18.40;;;15.48;;
52494;SDS011;38405;53.212;5.660;2023-04-23T08:35:20;22.33;;;14.93;;
52494;SDS011;38405;53.212;5.660;2023-04-23T08:37:46;21.17;;;15.63;;
52494;SDS011;38405;53.212;5.660;2023-04-23T08:40:11;20.48;;;15.90;;
52494;SDS011;38405;53.212;5.660;2023-04-23T08:42:41;18.77;;;14.27;;
52494;SDS011;38405;53.212;5.660;2023-04-23T08:45:11;17.35;;;14.60;;
52494;SDS011;38405;53.212;5.660;2023-04-23T08:47:40;16.13;;;13.32;;
52494;SDS011;38405;53.212;5.660;2023-04-23T08:50:07;20.38;;;15.00;;
52494;SDS011;38405;53.212;5.660;2023-04-23T08:52:40;18.77;;;14.07;;
52494;SDS011;38405;53.212;5.660;2023-04-23T08:55:08;17.45;;;12.93;;
52494;SDS011;38405;53.212;5.660;2023-04-23T08:57:38;18.23;;;12.98;;
52494;SDS011;38405;53.212;5.660;2023-04-23T09:00:06;15.90;;;12.98;;
52494;SDS011;38405;53.212;5.660;2023-04-23T09:02:35;16.73;;;14.00;;
52494;SDS011;38405;53.212;5.660;2023-04-23T09:05:04;16.05;;;12.63;;
52494;SDS011;38405;53.212;5.660;2023-04-23T09:07:31;16.95;;;12.30;;
52494;SDS011;38405;53.212;5.660;2023-04-23T09:09:57;17.00;;;12.20;;
52494;SDS011;38405;53.212;5.660;2023-04-23T09:12:23;14.70;;;11.77;;
52494;SDS011;38405;53.212;5.660;2023-04-23T09:14:49;15.55;;;11.88;;
52494;SDS011;38405;53.212;5.660;2023-04-23T09:17:18;15.20;;;11.55;;
52494;SDS011;38405;53.212;5.660;2023-04-23T09:19:46;16.27;;;11.38;;
52494;SDS011;38405;53.212;5.660;2023-04-23T09:22:13;16.55;;;11.18;;
52494;SDS011;38405;53.212;5.660;2023-04-23T09:24:41;14.02;;;10.77;;
52494;SDS011;38405;53.212;5.660;2023-04-23T09:27:07;13.90;;;11.73;;
52494;SDS011;38405;53.212;5.660;2023-04-23T09:29:33;13.15;;;10.80;;
52494;SDS011;38405;53.212;5.660;2023-04-23T09:32:06;15.15;;;11.02;;
52494;SDS011;38405;53.212;5.660;2023-04-23T09:34:33;16.02;;;10.88;;
52494;SDS011;38405;53.212;5.660;2023-04-23T09:37:01;13.90;;;10.82;;
52494;SDS011;38405;53.212;5.660;2023-04-23T09:39:27;23.17;;;11.57;;
52494;SDS011;38405;53.212;5.660;2023-04-23T09:41:54;14.57;;;10.75;;
52494;SDS011;38405;53.212;5.660;2023-04-23T09:44:33;15.00;;;10.45;;
52494;SDS011;38405;53.212;5.660;2023-04-23T09:47:08;14.73;;;10.43;;
52494;SDS011;38405;53.212;5.660;2023-04-23T09:49:47;13.00;;;10.20;;
52494;SDS011;38405;53.212;5.660;2023-04-23T09:52:13;13.07;;;9.63;;
52494;SDS011;38405;53.212;5.660;2023-04-23T09:54:39;15.95;;;9.60;;
52494;SDS011;38405;53.212;5.660;2023-04-23T09:57:05;11.32;;;9.65;;
52494;SDS011;38405;53.212;5.660;2023-04-23T09:59:33;13.05;;;10.40;;
52494;SDS011;38405;53.212;5.660;2023-04-23T10:02:03;15.45;;;9.82;;
52494;SDS011;38405;53.212;5.660;2023-04-23T10:04:29;14.10;;;10.00;;
52494;SDS011;38405;53.212;5.660;2023-04-23T10:06:56;13.73;;;9.00;;
52494;SDS011;38405;53.212;5.660;2023-04-23T10:09:23;14.70;;;10.23;;
52494;SDS011;38405;53.212;5.660;2023-04-23T10:11:54;12.20;;;9.30;;
52494;SDS011;38405;53.212;5.660;2023-04-23T10:14:22;14.15;;;9.30;;
52494;SDS011;38405;53.212;5.660;2023-04-23T10:16:49;15.65;;;9.32;;
52494;SDS011;38405;53.212;5.660;2023-04-23T10:19:18;10.63;;;8.48;;
52494;SDS011;38405;53.212;5.660;2023-04-23T10:21:48;12.55;;;9.18;;
52494;SDS011;38405;53.212;5.660;2023-04-23T10:24:22;12.35;;;8.68;;
52494;SDS011;38405;53.212;5.660;2023-04-23T10:26:49;13.63;;;8.80;;
52494;SDS011;38405;53.212;5.660;2023-04-23T10:29:18;13.55;;;9.48;;
52494;SDS011;38405;53.212;5.660;2023-04-23T10:31:50;11.15;;;8.32;;
52494;SDS011;38405;53.212;5.660;2023-04-23T10:34:18;11.27;;;9.18;;
52494;SDS011;38405;53.212;5.660;2023-04-23T10:36:44;11.98;;;8.45;;
52494;SDS011;38405;53.212;5.660;2023-04-23T10:39:10;9.32;;;7.43;;
52494;SDS011;38405;53.212;5.660;2023-04-23T10:41:38;12.82;;;8.23;;
52494;SDS011;38405;53.212;5.660;2023-04-23T10:44:05;12.23;;;8.45;;
52494;SDS011;38405;53.212;5.660;2023-04-23T10:46:36;12.18;;;7.60;;
52494;SDS011;38405;53.212;5.660;2023-04-23T10:51:32;12.90;;;8.40;;
52494;SDS011;38405;53.212;5.660;2023-04-23T10:53:59;12.38;;;8.38;;
52494;SDS011;38405;53.212;5.660;2023-04-23T10:56:26;9.98;;;7.43;;
52494;SDS011;38405;53.212;5.660;2023-04-23T10:58:52;11.70;;;7.88;;
52494;SDS011;38405;53.212;5.660;2023-04-23T11:01:17;13.45;;;7.18;;
52494;SDS011;38405;53.212;5.660;2023-04-23T11:03:45;12.95;;;7.10;;
52494;SDS011;38405;53.212;5.660;2023-04-23T11:06:19;10.02;;;7.70;;
52494;SDS011;38405;53.212;5.660;2023-04-23T11:11:54;13.98;;;7.55;;
52494;SDS011;38405;53.212;5.660;2023-04-23T11:14:32;8.45;;;5.72;;
52494;SDS011;38405;53.212;5.660;2023-04-23T11:17:11;9.18;;;5.40;;
52494;SDS011;38405;53.212;5.660;2023-04-23T11:19:38;9.10;;;5.18;;
52494;SDS011;38405;53.212;5.660;2023-04-23T11:22:14;7.88;;;4.22;;
52494;SDS011;38405;53.212;5.660;2023-04-23T11:24:42;7.20;;;4.15;;
52494;SDS011;38405;53.212;5.660;2023-04-23T11:27:13;8.15;;;3.35;;
52494;SDS011;38405;53.212;5.660;2023-04-23T11:29:42;8.07;;;3.10;;
52494;SDS011;38405;53.212;5.660;2023-04-23T11:32:09;7.13;;;2.60;;
52494;SDS011;38405;53.212;5.660;2023-04-23T11:34:41;4.85;;;2.65;;
52494;SDS011;38405;53.212;5.660;2023-04-23T11:37:11;6.00;;;2.13;;
52494;SDS011;38405;53.212;5.660;2023-04-23T11:39:39;6.22;;;2.63;;
52494;SDS011;38405;53.212;5.660;2023-04-23T11:42:12;6.82;;;2.13;;
52494;SDS011;38405;53.212;5.660;2023-04-23T11:44:41;7.25;;;2.55;;
52494;SDS011;38405;53.212;5.660;2023-04-23T11:47:09;7.53;;;2.40;;
52494;SDS011;38405;53.212;5.660;2023-04-23T11:49:39;5.22;;;2.45;;
52494;SDS011;38405;53.212;5.660;2023-04-23T11:52:07;9.30;;;2.50;;
52494;SDS011;38405;53.212;5.660;2023-04-23T11:54:33;7.93;;;2.70;;
52494;SDS011;38405;53.212;5.660;2023-04-23T11:56:59;7.07;;;2.70;;
52494;SDS011;38405;53.212;5.660;2023-04-23T11:59:27;7.85;;;2.72;;
52494;SDS011;38405;53.212;5.660;2023-04-23T12:01:56;5.25;;;2.47;;
52494;SDS011;38405;53.212;5.660;2023-04-23T12:04:23;6.22;;;2.25;;
52494;SDS011;38405;53.212;5.660;2023-04-23T12:06:52;5.88;;;2.42;;
52494;SDS011;38405;53.212;5.660;2023-04-23T12:09:20;10.65;;;2.75;;
52494;SDS011;38405;53.212;5.660;2023-04-23T12:11:47;7.50;;;2.70;;
52494;SDS011;38405;53.212;5.660;2023-04-23T12:14:17;5.22;;;2.58;;
52494;SDS011;38405;53.212;5.660;2023-04-23T12:16:46;5.68;;;2.55;;
52494;SDS011;38405;53.212;5.660;2023-04-23T12:19:26;5.05;;;2.35;;
52494;SDS011;38405;53.212;5.660;2023-04-23T12:21:54;5.72;;;2.60;;
52494;SDS011;38405;53.212;5.660;2023-04-23T12:24:22;4.60;;;2.10;;
52494;SDS011;38405;53.212;5.660;2023-04-23T12:26:49;5.50;;;2.45;;
52494;SDS011;38405;53.212;5.660;2023-04-23T12:29:18;6.03;;;2.17;;
52494;SDS011;38405;53.212;5.660;2023-04-23T12:31:45;9.30;;;2.28;;
52494;SDS011;38405;53.212;5.660;2023-04-23T12:34:12;8.07;;;2.35;;
52494;SDS011;38405;53.212;5.660;2023-04-23T12:36:43;7.85;;;1.90;;
52494;SDS011;38405;53.212;5.660;2023-04-23T12:42:02;6.93;;;2.10;;
52494;SDS011;38405;53.212;5.660;2023-04-23T12:44:38;7.80;;;2.10;;
52494;SDS011;38405;53.212;5.660;2023-04-23T12:47:04;5.07;;;1.90;;
52494;SDS011;38405;53.212;5.660;2023-04-23T12:49:31;10.35;;;2.60;;
52494;SDS011;38405;53.212;5.660;2023-04-23T12:51:58;9.93;;;2.63;;
52494;SDS011;38405;53.212;5.660;2023-04-23T12:54:29;6.18;;;2.15;;
52494;SDS011;38405;53.212;5.660;2023-04-23T12:56:56;10.52;;;2.35;;
52494;SDS011;38405;53.212;5.660;2023-04-23T12:59:23;4.90;;;1.88;;
52494;SDS011;38405;53.212;5.660;2023-04-23T13:01:49;4.13;;;2.10;;
52494;SDS011;38405;53.212;5.660;2023-04-23T13:04:15;10.82;;;2.38;;
52494;SDS011;38405;53.212;5.660;2023-04-23T13:06:41;9.32;;;2.00;;
52494;SDS011;38405;53.212;5.660;2023-04-23T13:09:08;8.43;;;2.35;;
52494;SDS011;38405;53.212;5.660;2023-04-23T13:11:34;7.05;;;2.55;;
52494;SDS011;38405;53.212;5.660;2023-04-23T13:14:01;8.82;;;2.35;;
52494;SDS011;38405;53.212;5.660;2023-04-23T13:16:26;12.18;;;2.17;;
52494;SDS011;38405;53.212;5.660;2023-04-23T13:18:53;7.53;;;2.28;;
52494;SDS011;38405;53.212;5.660;2023-04-23T13:21:19;10.38;;;2.28;;
52494;SDS011;38405;53.212;5.660;2023-04-23T13:23:45;9.23;;;2.53;;
52494;SDS011;38405;53.212;5.660;2023-04-23T13:26:10;8.55;;;2.05;;
52494;SDS011;38405;53.212;5.660;2023-04-23T13:28:36;7.38;;;2.40;;
52494;SDS011;38405;53.212;5.660;2023-04-23T13:31:02;10.23;;;2.40;;
52494;SDS011;38405;53.212;5.660;2023-04-23T13:33:28;5.15;;;1.92;;
52494;SDS011;38405;53.212;5.660;2023-04-23T13:35:55;6.35;;;2.40;;
52494;SDS011;38405;53.212;5.660;2023-04-23T13:38:22;6.55;;;2.22;;
52494;SDS011;38405;53.212;5.660;2023-04-23T13:40:49;10.38;;;2.00;;
52494;SDS011;38405;53.212;5.660;2023-04-23T13:43:15;11.38;;;2.22;;
52494;SDS011;38405;53.212;5.660;2023-04-23T13:45:40;9.15;;;2.10;;
52494;SDS011;38405;53.212;5.660;2023-04-23T13:48:06;8.00;;;2.53;;
52494;SDS011;38405;53.212;5.660;2023-04-23T13:50:32;7.70;;;2.03;;
52494;SDS011;38405;53.212;5.660;2023-04-23T13:52:58;6.55;;;2.05;;
52494;SDS011;38405;53.212;5.660;2023-04-23T13:55:24;8.18;;;1.98;;
52494;SDS011;38405;53.212;5.660;2023-04-23T13:57:50;8.98;;;2.08;;
52494;SDS011;38405;53.212;5.660;2023-04-23T14:00:16;5.28;;;1.73;;
52494;SDS011;38405;53.212;5.660;2023-04-23T14:02:42;7.10;;;2.13;;
52494;SDS011;38405;53.212;5.660;2023-04-23T14:05:07;5.72;;;2.22;;
52494;SDS011;38405;53.212;5.660;2023-04-23T14:07:34;9.32;;;2.10;;
52494;SDS011;38405;53.212;5.660;2023-04-23T14:10:00;6.47;;;2.10;;
52494;SDS011;38405;53.212;5.660;2023-04-23T14:12:26;6.22;;;1.85;;
52494;SDS011;38405;53.212;5.660;2023-04-23T14:14:53;10.85;;;2.50;;
52494;SDS011;38405;53.212;5.660;2023-04-23T14:17:19;8.90;;;2.08;;
52494;SDS011;38405;53.212;5.660;2023-04-23T14:19:45;4.53;;;1.92;;
52494;SDS011;38405;53.212;5.660;2023-04-23T14:22:11;4.78;;;1.90;;
52494;SDS011;38405;53.212;5.660;2023-04-23T14:24:38;5.80;;;2.10;;
52494;SDS011;38405;53.212;5.660;2023-04-23T14:27:08;9.65;;;2.28;;
52494;SDS011;38405;53.212;5.660;2023-04-23T14:29:34;6.68;;;1.90;;